In Rescue
 
Open Full Screen Window  High Contrast Mode
Wind Gusting 00 knots
04
May 25, 2022 9:10 PM CDT
Weather Information
Wind Direction
  090 °
Wind Speed
  04 kt (5 mph)
Wind Gust
  00 kt (0 mph)
Altimeter
29.94 in
Visibility
10 SM
Temperature
10° C
50° F
Dewpoint
06° C
43° F
Humidity
76%
1hr Rain Fall
00.00 in.
24hr Rain Fall
00.00 in.
Sky Condition
Broken @ 4,500 ft
Scattered @ 2,700 ft
Few @ 2,300 ft
VFR

METAR KDTL 260210Z AUTO 09004KT 10SM FEW023 SCT027 BKN045 10/06 A2994 RMK AO2

FAA Disclaimer: The data displayed is for advisory purposes only and is not to be used for flight planning or operations.